Observation data for Goodlett on 05/17/2018      Previous  Date  Next       Current Mesonet Observations  Soil Data  Daily Summary Page  Observations in Plain Language
KGDS 170500Z 14008KT 21/15 A2992 RMK A01 T02140152  RH  069%=      5-min Rain = 0
KGDS 170505Z 13008KT 21/15 A2992 RMK A01 T02140152  RH  069%=      5-min Rain = 0
KGDS 170510Z 14008KT 21/15 A2992 RMK A01 T02140153  RH  070%=      5-min Rain = 0
KGDS 170515Z 14008KT 21/15 A2992 RMK A01 T02130153  RH  070%=      5-min Rain = 0
KGDS 170520Z 13007KT 21/15 A2992 RMK A01 T02120153  RH  071%=      5-min Rain = 0
KGDS 170525Z 12007KT 21/15 A2992 RMK A01 T02110153  RH  071%=      5-min Rain = 0
KGDS 170530Z 11007KT 21/15 A2993 RMK A01 T02100153  RH  072%=      5-min Rain = 0
KGDS 170535Z 11006KT 21/15 A2993 RMK A01 T02090153  RH  072%=      5-min Rain = 0
KGDS 170540Z 12006KT 21/15 A2993 RMK A01 T02050153  RH  073%=      5-min Rain = 0
KGDS 170545Z 12006KT 20/15 A2993 RMK A01 T02030153  RH  074%=      5-min Rain = 0
KGDS 170550Z 12006KT 20/15 A2993 RMK A01 T02010152  RH  075%=      5-min Rain = 0
KGDS 170555Z 12006KT 20/15 A2993 RMK A01 T01990152  RH  076%=      5-min Rain = 0
KGDS 170600Z 12006KT 20/15 A2993 RMK A01 T02010153  RH  075%=      5-min Rain = 0
KGDS 170605Z 13006KT 20/15 A2993 RMK A01 T02010152  RH  075%=      5-min Rain = 0
KGDS 170610Z 14006KT 20/15 A2993 RMK A01 T02000152  RH  076%=      5-min Rain = 0
KGDS 170615Z 13006KT 20/15 A2993 RMK A01 T02000152  RH  076%=      5-min Rain = 0
KGDS 170620Z 13005KT 20/15 A2994 RMK A01 T01970152  RH  077%=      5-min Rain = 0
KGDS 170625Z 15004KT 20/15 A2994 RMK A01 T01960152  RH  077%=      5-min Rain = 0
KGDS 170630Z 19002KT 20/15 A2994 RMK A01 T01960152  RH  078%=      5-min Rain = 0
KGDS 170635Z 19003KT 20/15 A2994 RMK A01 T01950153  RH  078%=      5-min Rain = 0
KGDS 170640Z 17004KT 20/15 A2994 RMK A01 T01960152  RH  078%=      5-min Rain = 0
KGDS 170645Z 17005KT 20/15 A2993 RMK A01 T01960152  RH  077%=      5-min Rain = 0
KGDS 170650Z 17005KT 20/15 A2993 RMK A01 T01950152  RH  078%=      5-min Rain = 0
KGDS 170655Z 16004KT 19/15 A2994 RMK A01 T01940152  RH  078%=      5-min Rain = 0
KGDS 170700Z 16005KT 19/15 A2994 RMK A01 T01930152  RH  078%=      5-min Rain = 0
KGDS 170705Z 16005KT 20/15 A2993 RMK A01 T01950152  RH  078%=      5-min Rain = 0
KGDS 170710Z 15005KT 20/15 A2993 RMK A01 T01950152  RH  078%=      5-min Rain = 0
KGDS 170715Z 16006KT 19/15 A2993 RMK A01 T01940152  RH  078%=      5-min Rain = 0
KGDS 170720Z 16006KT 19/15 A2993 RMK A01 T01930152  RH  079%=      5-min Rain = 0
KGDS 170725Z 16005KT 19/15 A2993 RMK A01 T01910152  RH  080%=      5-min Rain = 0
KGDS 170730Z 16005KT 19/15 A2993 RMK A01 T01890151  RH  080%=      5-min Rain = 0
KGDS 170735Z 15005KT 19/15 A2992 RMK A01 T01870151  RH  081%=      5-min Rain = 0
KGDS 170740Z 15006KT 19/15 A2992 RMK A01 T01860150  RH  082%=      5-min Rain = 0
KGDS 170745Z 16005KT 19/15 A2992 RMK A01 T01850151  RH  082%=      5-min Rain = 0
KGDS 170750Z 17004KT 18/15 A2992 RMK A01 T01840151  RH  083%=      5-min Rain = 0
KGDS 170755Z 17005KT 18/15 A2992 RMK A01 T01830151  RH  083%=      5-min Rain = 0
KGDS 170800Z 16005KT 18/15 A2991 RMK A01 T01830151  RH  083%=      5-min Rain = 0
KGDS 170805Z 11004KT 18/15 A2991 RMK A01 T01810148  RH  083%=      5-min Rain = 0
KGDS 170810Z 08005KT 18/15 A2991 RMK A01 T01750146  RH  085%=      5-min Rain = 0
KGDS 170815Z 09006KT 18/15 A2991 RMK A01 T01750149  RH  087%=      5-min Rain = 0
KGDS 170820Z 13004KT 18/15 A2992 RMK A01 T01760150  RH  087%=      5-min Rain = 0
KGDS 170825Z 14004KT 18/15 A2992 RMK A01 T01780152  RH  087%=      5-min Rain = 0
KGDS 170830Z 15003KT 18/15 A2992 RMK A01 T01800153  RH  086%=      5-min Rain = 0
KGDS 170835Z 18002KT 18/15 A2992 RMK A01 T01810153  RH  085%=      5-min Rain = 0
KGDS 170840Z 16001KT 18/15 A2992 RMK A01 T01810152  RH  085%=      5-min Rain = 0
KGDS 170845Z 07002KT 18/15 A2992 RMK A01 T01790150  RH  085%=      5-min Rain = 0
KGDS 170850Z 06004KT 18/15 A2992 RMK A01 T01750147  RH  086%=      5-min Rain = 0
KGDS 170855Z 06003KT 17/15 A2991 RMK A01 T01710146  RH  087%=      5-min Rain = 0
KGDS 170900Z 06003KT 17/15 A2991 RMK A01 T01710147  RH  087%=      5-min Rain = 0
KGDS 170905Z 09003KT 17/15 A2991 RMK A01 T01740150  RH  088%=      5-min Rain = 0
KGDS 170910Z 09005KT 18/15 A2991 RMK A01 T01750150  RH  087%=      5-min Rain = 0
KGDS 170915Z 10004KT 18/15 A2991 RMK A01 T01760150  RH  087%=      5-min Rain = 0
KGDS 170920Z 10004KT 18/15 A2991 RMK A01 T01770151  RH  087%=      5-min Rain = 0
KGDS 170925Z 11004KT 18/15 A2991 RMK A01 T01770151  RH  087%=      5-min Rain = 0
KGDS 170930Z 12004KT 18/15 A2991 RMK A01 T01780152  RH  087%=      5-min Rain = 0
KGDS 170935Z 14004KT 18/15 A2991 RMK A01 T01790153  RH  087%=      5-min Rain = 0
KGDS 170940Z 12004KT 18/15 A2991 RMK A01 T01810154  RH  086%=      5-min Rain = 0
KGDS 170945Z 11003KT 18/15 A2991 RMK A01 T01800153  RH  086%=      5-min Rain = 0
KGDS 170950Z 10003KT 18/15 A2991 RMK A01 T01810154  RH  086%=      5-min Rain = 0
KGDS 170955Z 07004KT 18/15 A2991 RMK A01 T01780151  RH  086%=      5-min Rain = 0
KGDS 171000Z 06004KT 18/15 A2991 RMK A01 T01750148  RH  086%=      5-min Rain = 0
KGDS 171005Z 05004KT 17/15 A2992 RMK A01 T01720147  RH  087%=      5-min Rain = 0
KGDS 171010Z 04004KT 17/15 A2992 RMK A01 T01690146  RH  088%=      5-min Rain = 0
KGDS 171015Z 04005KT 17/15 A2992 RMK A01 T01670145  RH  088%=      5-min Rain = 0
KGDS 171020Z 04004KT 17/14 A2992 RMK A01 T01650144  RH  089%=      5-min Rain = 0
KGDS 171025Z 05005KT 17/15 A2992 RMK A01 T01650145  RH  090%=      5-min Rain = 0
KGDS 171030Z 05005KT 17/15 A2992 RMK A01 T01660146  RH  090%=      5-min Rain = 0
KGDS 171035Z 06005KT 17/15 A2992 RMK A01 T01660147  RH  090%=      5-min Rain = 0
KGDS 171040Z 06005KT 17/15 A2992 RMK A01 T01680149  RH  090%=      5-min Rain = 0
KGDS 171045Z 07005KT 17/15 A2992 RMK A01 T01670148  RH  090%=      5-min Rain = 0
KGDS 171050Z 07005KT 17/15 A2992 RMK A01 T01670148  RH  090%=      5-min Rain = 0
KGDS 171055Z 07005KT 17/15 A2992 RMK A01 T01690150  RH  090%=      5-min Rain = 0
KGDS 171100Z 06004KT 17/15 A2992 RMK A01 T01690150  RH  090%=      5-min Rain = 0
KGDS 171105Z 05004KT 17/15 A2992 RMK A01 T01700150  RH  090%=      5-min Rain = 0
KGDS 171110Z 05004KT 17/15 A2992 RMK A01 T01710151  RH  090%=      5-min Rain = 0
KGDS 171115Z 05004KT 17/15 A2992 RMK A01 T01710151  RH  090%=      5-min Rain = 0
KGDS 171120Z 05004KT 17/15 A2992 RMK A01 T01710151  RH  090%=      5-min Rain = 0
KGDS 171125Z 04005KT 17/15 A2992 RMK A01 T01700150  RH  090%=      5-min Rain = 0
KGDS 171130Z 04006KT 17/15 A2992 RMK A01 T01670148  RH  090%=      5-min Rain = 0
KGDS 171135Z 04005KT 17/15 A2992 RMK A01 T01670148  RH  091%=      5-min Rain = 0
KGDS 171140Z 04005KT 17/15 A2992 RMK A01 T01660147  RH  091%=      5-min Rain = 0
KGDS 171145Z 04004KT 17/15 A2992 RMK A01 T01650147  RH  091%=      5-min Rain = 0
KGDS 171150Z 04003KT 17/15 A2992 RMK A01 T01660148  RH  091%=      5-min Rain = 0
KGDS 171155Z 06004KT 17/15 A2993 RMK A01 T01690151  RH  091%=      5-min Rain = 0
KGDS 171200Z 07004KT 17/15 A2993 RMK A01 T01710152  RH  091%=      5-min Rain = 0
KGDS 171205Z 07004KT 17/15 A2992 RMK A01 T01730153  RH  090%=      5-min Rain = 0
KGDS 171210Z 07005KT 18/16 A2992 RMK A01 T01750155  RH  090%=      5-min Rain = 0
KGDS 171215Z 08004KT 18/16 A2993 RMK A01 T01780157  RH  090%=      5-min Rain = 0
KGDS 171220Z 08002KT 18/16 A2993 RMK A01 T01830162  RH  089%=      5-min Rain = 0
KGDS 171225Z 06001KT 19/16 A2993 RMK A01 T01860163  RH  089%=      5-min Rain = 0
KGDS 171230Z 02001KT 19/16 A2993 RMK A01 T01860162  RH  088%=      5-min Rain = 0
KGDS 171235Z 02001KT 19/16 A2993 RMK A01 T01890164  RH  088%=      5-min Rain = 0
KGDS 171240Z 04000KT 20/17 A2994 RMK A01 T01950169  RH  087%=      5-min Rain = 0
KGDS 171245Z 08001KT 20/17 A2994 RMK A01 T02020170  RH  084%=      5-min Rain = 0
KGDS 171250Z 10001KT 21/17 A2994 RMK A01 T02060168  RH  081%=      5-min Rain = 0
KGDS 171255Z 11002KT 21/17 A2994 RMK A01 T02070167  RH  080%=      5-min Rain = 0
KGDS 171300Z 08003KT 21/17 A2995 RMK A01 T02070166  RH  079%=      5-min Rain = 0
KGDS 171305Z 06004KT 20/17 A2995 RMK A01 T02030165  RH  080%=      5-min Rain = 0
KGDS 171310Z 07004KT 20/17 A2995 RMK A01 T02020166  RH  081%=      5-min Rain = 0
KGDS 171315Z 06005KT 20/17 A2995 RMK A01 T02030165  RH  081%=      5-min Rain = 0
KGDS 171320Z 06004KT 20/16 A2995 RMK A01 T02020164  RH  080%=      5-min Rain = 0
KGDS 171325Z 07004KT 20/16 A2995 RMK A01 T02020164  RH  081%=      5-min Rain = 0
KGDS 171330Z 07004KT 21/17 A2995 RMK A01 T02060166  RH  080%=      5-min Rain = 0
KGDS 171335Z 08004KT 21/17 A2995 RMK A01 T02100165  RH  077%=      5-min Rain = 0
KGDS 171340Z 10004KT 21/17 A2995 RMK A01 T02140165  RH  076%=      5-min Rain = 0
KGDS 171345Z 11004KT 22/16 A2995 RMK A01 T02180164  RH  073%=      5-min Rain = 0
KGDS 171350Z 11005KT 22/16 A2995 RMK A01 T02190162  RH  072%=      5-min Rain = 0
KGDS 171355Z 12005KT 22/16 A2995 RMK A01 T02220162  RH  071%=      5-min Rain = 0
KGDS 171400Z 11005KT 23/16 A2995 RMK A01 T02250164  RH  070%=      5-min Rain = 0
KGDS 171405Z 11005KT 23/16 A2994 RMK A01 T02260163  RH  069%=      5-min Rain = 0
KGDS 171410Z 10005KT 23/16 A2995 RMK A01 T02270164  RH  069%=      5-min Rain = 0
KGDS 171415Z 10006KT 23/16 A2995 RMK A01 T02290164  RH  068%=      5-min Rain = 0
KGDS 171420Z 10006KT 23/16 A2995 RMK A01 T02310164  RH  068%=      5-min Rain = 0
KGDS 171425Z 10007KT 23/16 A2995 RMK A01 T02340164  RH  066%=      5-min Rain = 0
KGDS 171430Z 11006KT 23/16 A2995 RMK A01 T02340163  RH  066%=      5-min Rain = 0
KGDS 171435Z 10007KT 24/17 A2995 RMK A01 T02400166  RH  065%=      5-min Rain = 0
KGDS 171440Z 12006KT 24/17 A2995 RMK A01 T02420166  RH  064%=      5-min Rain = 0
KGDS 171445Z 12006KT 25/17 A2994 RMK A01 T02470167  RH  062%=      5-min Rain = 0
KGDS 171450Z 13008KT 25/16 A2994 RMK A01 T02500163  RH  060%=      5-min Rain = 0
KGDS 171455Z 14009KT 26/16 A2994 RMK A01 T02550160  RH  057%=      5-min Rain = 0
KGDS 171500Z 13010KT 26/16 A2994 RMK A01 T02600159  RH  055%=      5-min Rain = 0
KGDS 171505Z 13009KT 26/16 A2994 RMK A01 T02630159  RH  054%=      5-min Rain = 0
KGDS 171510Z 13009KT 26/16 A2994 RMK A01 T02630159  RH  054%=      5-min Rain = 0
KGDS 171515Z 14010KT 27/16 A2994 RMK A01 T02680157  RH  052%=      5-min Rain = 0
KGDS 171520Z 13010KT 27/16 A2994 RMK A01 T02710157  RH  051%=      5-min Rain = 0
KGDS 171525Z 14012KT 27/16 A2994 RMK A01 T02740155  RH  049%=      5-min Rain = 0
KGDS 171530Z 15012KT 28/15 A2993 RMK A01 T02750152  RH  048%=      5-min Rain = 0
KGDS 171535Z 15011G16KT 28/15 A2993 RMK A01 T02750152  RH  048%=      5-min Rain = 0
KGDS 171540Z 13012KT 28/15 A2993 RMK A01 T02790149  RH  046%=      5-min Rain = 0
KGDS 171545Z 13013KT 28/15 A2993 RMK A01 T02810147  RH  045%=      5-min Rain = 0
KGDS 171550Z 13012KT 28/15 A2993 RMK A01 T02820147  RH  045%=      5-min Rain = 0
KGDS 171555Z 13013KT 28/15 A2993 RMK A01 T02840147  RH  044%=      5-min Rain = 0
KGDS 171600Z 14012KT 28/15 A2993 RMK A01 T02840147  RH  044%=      5-min Rain = 0
KGDS 171605Z 12011G17KT 29/15 A2993 RMK A01 T02890152  RH  044%=      5-min Rain = 0
KGDS 171610Z 13011G20KT 29/15 A2993 RMK A01 T02910151  RH  043%=      5-min Rain = 0
KGDS 171615Z 13012G18KT 29/15 A2992 RMK A01 T02920150  RH  043%=      5-min Rain = 0
KGDS 171620Z 13012G19KT 30/15 A2992 RMK A01 T02950147  RH  042%=      5-min Rain = 0
KGDS 171625Z 14013G18KT 29/15 A2992 RMK A01 T02940146  RH  042%=      5-min Rain = 0
KGDS 171630Z 14012G19KT 30/15 A2992 RMK A01 T02970148  RH  041%=      5-min Rain = 0
KGDS 171635Z 13012KT 29/15 A2992 RMK A01 T02930149  RH  042%=      5-min Rain = 0
KGDS 171640Z 15013KT 29/15 A2992 RMK A01 T02940150  RH  042%=      5-min Rain = 0
KGDS 171645Z 14014KT 30/15 A2992 RMK A01 T02950151  RH  043%=      5-min Rain = 0
KGDS 171650Z 12013G19KT 29/15 A2992 RMK A01 T02940152  RH  043%=      5-min Rain = 0
KGDS 171655Z 14012KT 30/15 A2992 RMK A01 T02980151  RH  042%=      5-min Rain = 0
KGDS 171700Z 14013KT 30/15 A2992 RMK A01 T03000150  RH  041%=      5-min Rain = 0
KGDS 171705Z 13014G19KT 30/15 A2991 RMK A01 T02990151  RH  042%=      5-min Rain = 0
KGDS 171710Z 13013KT 30/15 A2991 RMK A01 T03010152  RH  041%=      5-min Rain = 0
KGDS 171715Z 12013KT 31/15 A2991 RMK A01 T03060151  RH  040%=      5-min Rain = 0
KGDS 171720Z 12014G20KT 31/15 A2991 RMK A01 T03050151  RH  040%=      5-min Rain = 0
KGDS 171725Z 13014G19KT 30/15 A2991 RMK A01 T03040150  RH  040%=      5-min Rain = 0
KGDS 171730Z 12014G20KT 31/15 A299 RMK A01 T03080151  RH  039%=      5-min Rain = 0
KGDS 171735Z 12013G18KT 31/15 A299 RMK A01 T03080150  RH  039%=      5-min Rain = 0
KGDS 171740Z 13012G18KT 31/15 A299 RMK A01 T03120148  RH  038%=      5-min Rain = 0
KGDS 171745Z 11014G20KT 31/15 A2989 RMK A01 T03120148  RH  038%=      5-min Rain = 0
KGDS 171750Z 11014G19KT 32/15 A2989 RMK A01 T03150145  RH  037%=      5-min Rain = 0
KGDS 171755Z 11014G19KT 32/15 A2989 RMK A01 T03150145  RH  036%=      5-min Rain = 0
KGDS 171800Z 12014G19KT 31/14 A2989 RMK A01 T03130144  RH  037%=      5-min Rain = 0
KGDS 171805Z 13014G19KT 32/14 A2989 RMK A01 T03200144  RH  035%=      5-min Rain = 0
KGDS 171810Z 12015G20KT 32/15 A2988 RMK A01 T03190145  RH  036%=      5-min Rain = 0
KGDS 171815Z 12015G21KT 32/14 A2988 RMK A01 T03220144  RH  035%=      5-min Rain = 0
KGDS 171820Z 12014G22KT 32/14 A2988 RMK A01 T03230144  RH  035%=      5-min Rain = 0
KGDS 171825Z 11014G19KT 32/14 A2988 RMK A01 T03210142  RH  035%=      5-min Rain = 0
KGDS 171830Z 11014G20KT 32/14 A2988 RMK A01 T03200143  RH  035%=      5-min Rain = 0
KGDS 171835Z 12014G20KT 32/14 A2988 RMK A01 T03240140  RH  034%=      5-min Rain = 0
KGDS 171840Z 11014G22KT 32/14 A2988 RMK A01 T03220140  RH  034%=      5-min Rain = 0
KGDS 171845Z 11016G22KT 32/14 A2987 RMK A01 T03230140  RH  034%=      5-min Rain = 0
KGDS 171850Z 11016G21KT 32/14 A2987 RMK A01 T03230140  RH  034%=      5-min Rain = 0
KGDS 171855Z 12015KT 33/14 A2987 RMK A01 T03260139  RH  033%=      5-min Rain = 0
KGDS 171900Z 12015KT 32/14 A2987 RMK A01 T03230139  RH  033%=      5-min Rain = 0
KGDS 171905Z 12016G21KT 33/14 A2987 RMK A01 T03310143  RH  033%=      5-min Rain = 0
KGDS 171910Z 12014G20KT 33/14 A2987 RMK A01 T03270139  RH  033%=      5-min Rain = 0
KGDS 171915Z 10015G20KT 33/14 A2987 RMK A01 T03280142  RH  033%=      5-min Rain = 0
KGDS 171920Z 11015KT 33/14 A2986 RMK A01 T03320142  RH  033%=      5-min Rain = 0
KGDS 171925Z 11016G23KT 33/14 A2986 RMK A01 T03270142  RH  033%=      5-min Rain = 0
KGDS 171930Z 12014G20KT 33/14 A2986 RMK A01 T03330142  RH  032%=      5-min Rain = 0
KGDS 171935Z 11016G24KT 33/14 A2985 RMK A01 T03290143  RH  033%=      5-min Rain = 0
KGDS 171940Z 11015G21KT 33/14 A2985 RMK A01 T03310144  RH  033%=      5-min Rain = 0
KGDS 171945Z 11015G20KT 33/14 A2985 RMK A01 T03290143  RH  033%=      5-min Rain = 0
KGDS 171950Z 11015G22KT 33/14 A2985 RMK A01 T03290143  RH  033%=      5-min Rain = 0
KGDS 171955Z 13016G24KT 33/14 A2985 RMK A01 T03320142  RH  033%=      5-min Rain = 0
KGDS 172000Z 11012G19KT 33/14 A2985 RMK A01 T03300143  RH  033%=      5-min Rain = 0
KGDS 172005Z 11016G23KT 33/14 A2985 RMK A01 T03320144  RH  033%=      5-min Rain = 0
KGDS 172010Z 11016G23KT 33/14 A2984 RMK A01 T03340143  RH  032%=      5-min Rain = 0
KGDS 172015Z 11014G19KT 33/14 A2984 RMK A01 T03330144  RH  033%=      5-min Rain = 0
KGDS 172020Z 11013G20KT 33/14 A2984 RMK A01 T03320143  RH  033%=      5-min Rain = 0
KGDS 172025Z 12017G23KT 33/15 A2983 RMK A01 T03340145  RH  033%=      5-min Rain = 0
KGDS 172030Z 11015G20KT 33/15 A2983 RMK A01 T03330145  RH  033%=      5-min Rain = 0
KGDS 172035Z 12016G23KT 33/15 A2983 RMK A01 T03320145  RH  033%=      5-min Rain = 0
KGDS 172040Z 11018G23KT 33/15 A2983 RMK A01 T03330145  RH  033%=      5-min Rain = 0
KGDS 172045Z 12017G25KT 33/14 A2983 RMK A01 T03330144  RH  033%=      5-min Rain = 0
KGDS 172050Z 11018KT 33/15 A2982 RMK A01 T03320145  RH  033%=      5-min Rain = 0
KGDS 172055Z 10014KT 33/14 A2982 RMK A01 T03320144  RH  033%=      5-min Rain = 0
KGDS 172100Z 11019G25KT 33/15 A2981 RMK A01 T03340145  RH  033%=      5-min Rain = 0
KGDS 172105Z 11018G25KT 33/15 A2981 RMK A01 T03310145  RH  033%=      5-min Rain = 0
KGDS 172110Z 11018G24KT 33/15 A2981 RMK A01 T03340145  RH  033%=      5-min Rain = 0
KGDS 172115Z 11019G26KT 34/14 A298 RMK A01 T03350144  RH  033%=      5-min Rain = 0
KGDS 172120Z 10018G24KT 34/15 A298 RMK A01 T03350145  RH  033%=      5-min Rain = 0
KGDS 172125Z 11019G24KT 34/15 A298 RMK A01 T03370146  RH  032%=      5-min Rain = 0
KGDS 172130Z 10018G28KT 34/15 A298 RMK A01 T03350145  RH  032%=      5-min Rain = 0
KGDS 172135Z 11017G22KT 34/14 A2979 RMK A01 T03350144  RH  032%=      5-min Rain = 0
KGDS 172140Z 11019G25KT 34/14 A2979 RMK A01 T03350144  RH  032%=      5-min Rain = 0
KGDS 172145Z 10018KT 33/14 A2978 RMK A01 T03340144  RH  033%=      5-min Rain = 0
KGDS 172150Z 11019G27KT 34/14 A2978 RMK A01 T03350144  RH  032%=      5-min Rain = 0
KGDS 172155Z 10020G25KT 34/14 A2977 RMK A01 T03350143  RH  032%=      5-min Rain = 0
KGDS 172200Z 11020G26KT 34/14 A2977 RMK A01 T03350144  RH  032%=      5-min Rain = 0
KGDS 172205Z 11020G26KT 33/14 A2977 RMK A01 T03320143  RH  033%=      5-min Rain = 0
KGDS 172210Z 10020G25KT 33/14 A2977 RMK A01 T03250143  RH  034%=      5-min Rain = 0
KGDS 172215Z 10020G25KT 32/15 A2977 RMK A01 T03210145  RH  035%=      5-min Rain = 0
KGDS 172220Z 10020G29KT 32/15 A2976 RMK A01 T03190147  RH  036%=      5-min Rain = 0
KGDS 172225Z 10019G24KT 32/15 A2975 RMK A01 T03190148  RH  036%=      5-min Rain = 0
KGDS 172230Z 10020G26KT 32/15 A2975 RMK A01 T03170149  RH  037%=      5-min Rain = 0
KGDS 172235Z 09021G28KT 32/15 A2974 RMK A01 T03150149  RH  037%=      5-min Rain = 0
KGDS 172240Z 10019G25KT 31/15 A2974 RMK A01 T03140150  RH  038%=      5-min Rain = 0
KGDS 172245Z 10017G23KT 31/15 A2975 RMK A01 T03140151  RH  038%=      5-min Rain = 0
KGDS 172250Z 10020G26KT 31/15 A2976 RMK A01 T03110150  RH  038%=      5-min Rain = 0
KGDS 172255Z 10022G28KT 31/15 A2975 RMK A01 T03080150  RH  039%=      5-min Rain = 0
KGDS 172300Z 10022G28KT 31/15 A2974 RMK A01 T03060151  RH  040%=      5-min Rain = 0
KGDS 172305Z 10019G28KT 30/15 A2974 RMK A01 T03040151  RH  040%=      5-min Rain = 0
KGDS 172310Z 10022G27KT 30/15 A2973 RMK A01 T03020151  RH  041%=      5-min Rain = 0
KGDS 172315Z 10022G29KT 30/15 A2972 RMK A01 T03010152  RH  041%=      5-min Rain = 0
KGDS 172320Z 10021G27KT 30/15 A2972 RMK A01 T02990152  RH  042%=      5-min Rain = 0
KGDS 172325Z 10022G29KT 30/15 A2974 RMK A01 T02970152  RH  042%=      5-min Rain = 0
KGDS 172330Z 10020G27KT 30/15 A2974 RMK A01 T02970152  RH  042%=      5-min Rain = 0
KGDS 172335Z 10022G27KT 30/15 A2974 RMK A01 T02960152  RH  042%=      5-min Rain = 0
KGDS 172340Z 11022G28KT 30/15 A2975 RMK A01 T02960152  RH  042%=      5-min Rain = 0
KGDS 172345Z 11021G28KT 30/15 A2976 RMK A01 T02950152  RH  043%=      5-min Rain = 0
KGDS 172350Z 11020G26KT 30/15 A2976 RMK A01 T02950152  RH  043%=      5-min Rain = 0
KGDS 172355Z 11022G28KT 29/15 A2975 RMK A01 T02930152  RH  043%=      5-min Rain = 0
KGDS 180000Z 11022G27KT 29/15 A2975 RMK A01 T02920151  RH  043%=      5-min Rain = 0
KGDS 180005Z 12022G30KT 29/15 A2974 RMK A01 T02910151  RH  043%=      5-min Rain = 0
KGDS 180010Z 12020G28KT 29/15 A2974 RMK A01 T02900151  RH  044%=      5-min Rain = 0
KGDS 180015Z 12024G30KT 29/16 A2975 RMK A01 T02860157  RH  047%=      5-min Rain = 0
KGDS 180020Z 12014G24KT 28/16 A2977 RMK A01 T02810161  RH  049%=      5-min Rain = 0
KGDS 180025Z 11013G26KT 28/16 A2978 RMK A01 T02780163  RH  050%=      5-min Rain = 0
KGDS 180030Z 12020G26KT 28/16 A2979 RMK A01 T02770162  RH  051%=      5-min Rain = 0
KGDS 180035Z 12018KT 27/17 A2981 RMK A01 T02740166  RH  053%=      5-min Rain = 0
KGDS 180040Z 10016G22KT 27/17 A2982 RMK A01 T02660169  RH  057%=      5-min Rain = 0.02
KGDS 180045Z 08014G20KT 26/18 A2983 RMK A01 T02590175  RH  061%=      5-min Rain = 0
KGDS 180050Z 06020G28KT 25/18 A2984 RMK A01 T02490181  RH  067%=      5-min Rain = 0.05
KGDS 180055Z 03019G26KT 25/15 A2985 RMK A01 T02490148  RH  055%=      5-min Rain = 0.02
KGDS 180100Z 02010G16KT 24/15 A2988 RMK A01 T02420147  RH  057%=      5-min Rain = 0.02
KGDS 180105Z 00008G15KT 24/16 A299 RMK A01 T02350159  RH  064%=      5-min Rain = 0.01
KGDS 180110Z 35013G21KT 23/14 A2993 RMK A01 T02300144  RH  059%=      5-min Rain = 0.07
KGDS 180115Z 00007G16KT 22/14 A2993 RMK A01 T02210143  RH  062%=      5-min Rain = 0.13
KGDS 180120Z 35006KT 21/15 A2989 RMK A01 T02140147  RH  067%=      5-min Rain = 0.04
KGDS 180125Z 07011G16KT 21/16 A2988 RMK A01 T02070156  RH  074%=      5-min Rain = 0.03
KGDS 180130Z 09018G26KT 20/16 A2989 RMK A01 T02040162  RH  078%=      5-min Rain = 0.02
KGDS 180135Z 11013G18KT 20/16 A2989 RMK A01 T01990158  RH  079%=      5-min Rain = 0.03
KGDS 180140Z 13020G31KT 20/15 A2985 RMK A01 T01950149  RH  076%=      5-min Rain = 0.04
KGDS 180145Z 12025G32KT 19/15 A2982 RMK A01 T01860148  RH  080%=      5-min Rain = 0.11
KGDS 180150Z 10022G31KT 19/15 A298 RMK A01 T01870147  RH  079%=      5-min Rain = 0.03
KGDS 180155Z 12005G15KT 19/15 A2986 RMK A01 T01900148  RH  079%=      5-min Rain = 0.01
KGDS 180200Z 20010G15KT 19/15 A2989 RMK A01 T01890151  RH  080%=      5-min Rain = 0
KGDS 180205Z 16010KT 18/16 A2988 RMK A01 T01840155  RH  085%=      5-min Rain = 0
KGDS 180210Z 13012KT 19/16 A2986 RMK A01 T01850160  RH  088%=      5-min Rain = 0
KGDS 180215Z 13016G23KT 19/16 A2986 RMK A01 T01880163  RH  088%=      5-min Rain = 0
KGDS 180220Z 13017G22KT 19/16 A2986 RMK A01 T01900162  RH  086%=      5-min Rain = 0
KGDS 180225Z 13017G23KT 19/16 A2987 RMK A01 T01900156  RH  083%=      5-min Rain = 0
KGDS 180230Z 12015KT 19/15 A2985 RMK A01 T01900154  RH  081%=      5-min Rain = 0
KGDS 180235Z 11014G19KT 19/15 A2984 RMK A01 T01890154  RH  082%=      5-min Rain = 0
KGDS 180240Z 11015KT 19/15 A2984 RMK A01 T01910151  RH  080%=      5-min Rain = 0
KGDS 180245Z 11014G19KT 19/15 A2984 RMK A01 T01940150  RH  077%=      5-min Rain = 0
KGDS 180250Z 11013KT 20/15 A2984 RMK A01 T01970148  RH  075%=      5-min Rain = 0
KGDS 180255Z 11013KT 20/15 A2985 RMK A01 T01970147  RH  074%=      5-min Rain = 0.01
KGDS 180300Z 11012KT 20/15 A2985 RMK A01 T01980146  RH  073%=      5-min Rain = 0
KGDS 180305Z 12012KT 20/14 A2986 RMK A01 T02010143  RH  071%=      5-min Rain = 0
KGDS 180310Z 13013G18KT 20/15 A2987 RMK A01 T02020145  RH  071%=      5-min Rain = 0
KGDS 180315Z 13011KT 20/15 A2987 RMK A01 T02020147  RH  072%=      5-min Rain = 0
KGDS 180320Z 13010KT 20/15 A2986 RMK A01 T02010148  RH  073%=      5-min Rain = 0
KGDS 180325Z 13007KT 20/15 A2988 RMK A01 T02010149  RH  074%=      5-min Rain = 0
KGDS 180330Z 10007KT 20/15 A2988 RMK A01 T02020150  RH  073%=      5-min Rain = 0
KGDS 180335Z 05006KT 20/15 A2988 RMK A01 T02020152  RH  074%=      5-min Rain = 0
KGDS 180340Z 35006KT 20/15 A2989 RMK A01 T01990154  RH  077%=      5-min Rain = 0
KGDS 180345Z 35003KT 20/15 A2989 RMK A01 T02020149  RH  073%=      5-min Rain = 0
KGDS 180350Z 11004KT 21/15 A2989 RMK A01 T02090147  RH  069%=      5-min Rain = 0.01
KGDS 180355Z 19009KT 21/16 A2991 RMK A01 T02050155  RH  075%=      5-min Rain = 0.02
KGDS 180400Z 14009G14KT 20/16 A2991 RMK A01 T01970157  RH  080%=      5-min Rain = 0.02
KGDS 180405Z 13014KT 20/16 A2991 RMK A01 T01970156  RH  079%=      5-min Rain = 0.01
KGDS 180410Z 11015KT 20/16 A2991 RMK A01 T01980155  RH  078%=      5-min Rain = 0.01
KGDS 180415Z 11015G21KT 20/16 A2991 RMK A01 T01970155  RH  079%=      5-min Rain = 0
KGDS 180420Z 12017KT 20/16 A2991 RMK A01 T01990155  RH  077%=      5-min Rain = 0
KGDS 180425Z 12017G22KT 20/15 A2991 RMK A01 T02010154  RH  076%=      5-min Rain = 0
KGDS 180430Z 12020KT 20/16 A2989 RMK A01 T01970157  RH  079%=      5-min Rain = 0
KGDS 180435Z 12019KT 19/16 A2989 RMK A01 T01940158  RH  081%=      5-min Rain = 0.01
KGDS 180440Z 11018KT 19/16 A2989 RMK A01 T01930158  RH  082%=      5-min Rain = 0
KGDS 180445Z 11016G22KT 19/16 A2989 RMK A01 T01940157  RH  081%=      5-min Rain = 0
KGDS 180450Z 13015G20KT 19/16 A2989 RMK A01 T01930158  RH  082%=      5-min Rain = 0
KGDS 180455Z 12016KT 19/16 A2988 RMK A01 T01920159  RH  083%=      5-min Rain = 0.01

Page generated in 0.0093 seconds.